createdAt,value
2023-04-02T00:00:11.184Z,99953.47
2023-04-02T00:03:22.367Z,99940.38
2023-04-02T00:06:40.624Z,99945.28
2023-04-02T00:09:43.400Z,99956.88
2023-04-02T00:13:19.497Z,99965.91
2023-04-02T00:16:24.271Z,99964.72
2023-04-02T00:19:38.432Z,99965.44
2023-04-02T00:22:44.678Z,99966.25
2023-04-02T00:25:47.416Z,99970.81
2023-04-02T00:28:51.372Z,99971.13
2023-04-02T00:31:53.964Z,99977.72
2023-04-02T00:34:56.533Z,99977.38
2023-04-02T00:37:58.848Z,99975.72
2023-04-02T00:41:05.914Z,99980.19
2023-04-02T00:44:12.441Z,99973.72
2023-04-02T00:47:20.387Z,99994.59
2023-04-02T00:50:33.828Z,99991.66
2023-04-02T00:53:36.380Z,99996.34
2023-04-02T00:56:44.396Z,99990.59
2023-04-02T01:00:03.765Z,99989.22
2023-04-02T01:03:29.416Z,100005.72
2023-04-02T01:06:37.341Z,100009.69
2023-04-02T01:09:59.964Z,100012.38
2023-04-02T01:13:30.448Z,100026.22
2023-04-02T01:16:36.962Z,100018.13
2023-04-02T01:20:02.132Z,100010.41
2023-04-02T01:23:10.450Z,100020.94
2023-04-02T01:26:27.666Z,100020.97
2023-04-02T01:29:41.344Z,100024.13
2023-04-02T01:32:43.968Z,100031.38
2023-04-02T01:35:52.109Z,100038.16
2023-04-02T01:39:06.845Z,100030.66
2023-04-02T01:42:24.792Z,100039.69
2023-04-02T01:45:27.244Z,100041.09
2023-04-02T01:48:31.150Z,100043.53
2023-04-02T01:51:34.420Z,100042.00
2023-04-02T01:54:40.802Z,100043.44
2023-04-02T01:57:44.710Z,100046.00
2023-04-02T02:01:07.491Z,100054.56
2023-04-02T02:04:14.035Z,100057.94
2023-04-02T02:07:19.389Z,100062.72
2023-04-02T02:10:34.061Z,100063.78
2023-04-02T02:13:37.115Z,100062.97
2023-04-02T02:16:42.004Z,100062.28
2023-04-02T02:19:47.576Z,100076.56
2023-04-02T02:22:51.233Z,100068.63
2023-04-02T02:25:55.848Z,100070.22
2023-04-02T02:28:58.952Z,100084.63
2023-04-02T02:32:01.748Z,100076.63
2023-04-02T02:35:11.790Z,100077.09
2023-04-02T02:38:29.748Z,100083.44
2023-04-02T02:41:44.029Z,100086.69
2023-04-02T02:44:48.702Z,100086.50
2023-04-02T02:47:53.502Z,100095.16
2023-04-02T02:50:56.992Z,100092.56
2023-04-02T02:54:03.718Z,100091.91
2023-04-02T02:57:09.134Z,100102.78
2023-04-02T03:00:13.197Z,100110.22
2023-04-02T03:03:19.241Z,100109.91
2023-04-02T03:06:25.320Z,100119.56
2023-04-02T03:09:51.646Z,100126.16
2023-04-02T03:13:19.991Z,100123.75
2023-04-02T03:16:52.243Z,100113.44
2023-04-02T03:19:59.585Z,100136.16
2023-04-02T03:23:18.385Z,100140.22
2023-04-02T03:26:32.127Z,100139.16
2023-04-02T03:29:37.128Z,100144.50
2023-04-02T03:32:41.294Z,100151.47
2023-04-02T03:35:49.897Z,100158.16
2023-04-02T03:38:57.731Z,100157.16
2023-04-02T03:42:22.949Z,100167.09
2023-04-02T03:45:28.743Z,100167.00
2023-04-02T03:48:45.045Z,100178.06
2023-04-02T03:51:50.425Z,100180.19
2023-04-02T03:54:54.722Z,100157.25
2023-04-02T03:58:17.481Z,100184.94
2023-04-02T04:01:34.719Z,100199.09
2023-04-02T04:04:40.928Z,100202.59
2023-04-02T04:07:45.092Z,100203.63
2023-04-02T04:10:52.236Z,100209.41
2023-04-02T04:14:00.129Z,100216.22
2023-04-02T04:17:13.998Z,100216.50
2023-04-02T04:20:33.975Z,100231.38
2023-04-02T04:23:41.557Z,100148.28
2023-04-02T04:27:04.538Z,100236.03
2023-04-02T04:30:18.427Z,100248.25
2023-04-02T04:33:26.025Z,100244.66
2023-04-02T04:36:41.567Z,100251.84
2023-04-02T04:39:57.820Z,100259.69
2023-04-02T04:43:06.410Z,100257.59
2023-04-02T04:46:21.741Z,100258.50
2023-04-02T04:49:42.400Z,100258.56
2023-04-02T04:52:45.058Z,100246.97
2023-04-02T04:55:50.834Z,100268.47
2023-04-02T04:59:05.302Z,100275.13
2023-04-02T05:02:18.978Z,100283.94
2023-04-02T05:05:27.491Z,100288.66
2023-04-02T05:08:35.058Z,100293.38
2023-04-02T05:11:43.345Z,100297.28
2023-04-02T05:14:52.220Z,100302.13
2023-04-02T05:18:17.794Z,100310.13
2023-04-02T05:21:28.130Z,100307.69
2023-04-02T05:24:38.336Z,100307.69
2023-04-02T05:27:47.375Z,100314.31
2023-04-02T05:31:12.699Z,100323.38
2023-04-02T05:34:24.632Z,100320.34
2023-04-02T05:37:29.988Z,100312.81
2023-04-02T05:40:41.312Z,100328.59
2023-04-02T05:43:47.541Z,100327.16
2023-04-02T05:46:55.446Z,100337.50
2023-04-02T05:50:10.335Z,100334.91
2023-04-02T05:53:26.118Z,100348.97
2023-04-02T05:56:36.615Z,100347.44
2023-04-02T05:59:45.643Z,100352.06
2023-04-02T06:03:01.796Z,100359.44
2023-04-02T06:06:14.577Z,100356.56
2023-04-02T06:09:25.990Z,100372.44
2023-04-02T06:12:40.046Z,100380.81
2023-04-02T06:15:43.272Z,100370.66
2023-04-02T06:18:54.206Z,100382.97
2023-04-02T06:22:00.895Z,100386.50
2023-04-02T06:25:18.781Z,100388.44
2023-04-02T06:28:28.312Z,100387.84
2023-04-02T06:31:37.495Z,100402.19
2023-04-02T06:34:43.331Z,100402.84
2023-04-02T06:37:52.288Z,100401.06
2023-04-02T06:41:05.213Z,100415.66
2023-04-02T06:44:35.818Z,100418.41
2023-04-02T06:48:17.969Z,100427.03
2023-04-02T06:51:25.114Z,100423.34
2023-04-02T06:54:28.033Z,100434.00
2023-04-02T06:57:35.986Z,100440.81
2023-04-02T07:00:46.945Z,100451.56
2023-04-02T07:03:56.801Z,100450.94
2023-04-02T07:07:04.626Z,100451.56
2023-04-02T07:10:13.098Z,100458.03
2023-04-02T07:13:17.901Z,100457.69
2023-04-02T07:16:25.793Z,100460.78
2023-04-02T07:19:29.802Z,100460.53
2023-04-02T07:22:34.468Z,100446.69
2023-04-02T07:25:38.333Z,100478.63
2023-04-02T07:28:40.955Z,100482.34
2023-04-02T07:31:43.467Z,100486.34
2023-04-02T07:34:46.155Z,100497.06
2023-04-02T07:37:48.623Z,100489.75
2023-04-02T07:40:51.194Z,100492.00
2023-04-02T07:43:53.477Z,100504.41
2023-04-02T07:46:56.374Z,100504.13
2023-04-02T07:49:58.741Z,100509.72
2023-04-02T07:53:01.491Z,100508.59
2023-04-02T07:56:05.405Z,100523.75
2023-04-02T07:59:07.914Z,100521.16
2023-04-02T08:02:22.261Z,100526.97
2023-04-02T08:05:24.728Z,100527.38
2023-04-02T08:08:27.226Z,100516.81
2023-04-02T08:11:31.553Z,100522.06
2023-04-02T08:14:34.489Z,100532.41
2023-04-02T08:17:37.043Z,100535.97
2023-04-02T08:20:39.681Z,100547.69
2023-04-02T08:23:43.132Z,100538.25
2023-04-02T08:26:49.960Z,100551.19
2023-04-02T08:29:52.529Z,100560.28
2023-04-02T08:32:55.026Z,100550.75
2023-04-02T08:35:57.662Z,100550.41
2023-04-02T08:39:00.040Z,100551.44
2023-04-02T08:42:30.699Z,100562.75
2023-04-02T08:45:56.610Z,100565.56
2023-04-02T08:49:02.058Z,100566.09
2023-04-02T08:52:04.527Z,100572.78
2023-04-02T08:55:22.840Z,100568.34
2023-04-02T08:58:43.126Z,100570.88
2023-04-02T09:02:07.591Z,100565.75
2023-04-02T09:05:18.956Z,100589.47
2023-04-02T09:08:24.876Z,100591.91
2023-04-02T09:11:36.961Z,100602.00
2023-04-02T09:15:00.617Z,100606.38
2023-04-02T09:18:32.353Z,100601.91
2023-04-02T09:21:37.994Z,100605.19
2023-04-02T09:24:40.375Z,100612.94
2023-04-02T09:27:42.701Z,100621.09
2023-04-02T09:31:13.102Z,100637.03
2023-04-02T09:34:32.967Z,100627.63
2023-04-02T09:37:35.446Z,100637.09
2023-04-02T09:41:06.015Z,100649.88
2023-04-02T09:44:27.184Z,100654.03
2023-04-02T09:47:32.829Z,100653.09
2023-04-02T09:50:35.521Z,100658.53
2023-04-02T09:53:39.946Z,100662.34
2023-04-02T09:57:23.972Z,100678.41
2023-04-02T10:00:41.663Z,100678.94
2023-04-02T10:03:44.505Z,100669.69
2023-04-02T10:06:50.916Z,100677.94
2023-04-02T10:10:18.787Z,100685.91
2023-04-02T10:13:40.545Z,100698.75
2023-04-02T10:16:48.463Z,100701.31
2023-04-02T10:19:57.475Z,100698.25
2023-04-02T10:22:59.881Z,100709.00
2023-04-02T10:26:30.093Z,100720.47
2023-04-02T10:29:50.445Z,100719.81
2023-04-02T10:33:02.302Z,100728.28
2023-04-02T10:36:23.054Z,100722.19
2023-04-02T10:39:39.122Z,100730.91
2023-04-02T10:43:09.159Z,100724.28
2023-04-02T10:46:22.950Z,100738.19
2023-04-02T10:49:51.745Z,100742.84
2023-04-02T10:52:59.903Z,100744.28
2023-04-02T10:56:05.766Z,100756.84
2023-04-02T10:59:19.303Z,100754.13
2023-04-02T11:02:32.181Z,100758.47
2023-04-02T11:05:38.175Z,100763.06
2023-04-02T11:08:43.073Z,100764.22
2023-04-02T11:11:47.138Z,100767.72
2023-04-02T11:14:49.391Z,100779.88
2023-04-02T11:17:52.292Z,100774.69
2023-04-02T11:21:00.592Z,100787.06
2023-04-02T11:24:03.674Z,100779.34
2023-04-02T11:27:12.184Z,100780.88
2023-04-02T11:30:21.282Z,100783.00
2023-04-02T11:33:39.177Z,100785.34
2023-04-02T11:36:53.051Z,100787.38
2023-04-02T11:40:00.163Z,100791.94
2023-04-02T11:43:47.932Z,100800.72
2023-04-02T11:46:51.660Z,100804.50
2023-04-02T11:50:01.594Z,100808.00
2023-04-02T11:53:13.700Z,100818.72
2023-04-02T11:56:35.577Z,100818.47
2023-04-02T12:00:08.041Z,100816.53
2023-04-02T12:04:07.916Z,100815.16
2023-04-02T12:07:28.060Z,100826.19
2023-04-02T12:10:34.882Z,100828.41
2023-04-02T12:13:39.987Z,100830.44
2023-04-02T12:16:42.445Z,100837.97
2023-04-02T12:20:25.412Z,100844.69
2023-04-02T12:23:31.548Z,100855.38
2023-04-02T12:26:38.183Z,100856.56
2023-04-02T12:29:40.943Z,100856.94
2023-04-02T12:32:43.346Z,100864.22
2023-04-02T12:35:47.855Z,100867.41
2023-04-02T12:38:59.313Z,100873.44
2023-04-02T12:42:01.839Z,100873.63
2023-04-02T12:45:09.448Z,100869.88
2023-04-02T12:48:12.633Z,100879.53
2023-04-02T12:51:16.240Z,100882.25
2023-04-02T12:54:20.790Z,100880.84
2023-04-02T12:57:26.295Z,100895.19
2023-04-02T13:00:30.717Z,100891.94
2023-04-02T13:03:33.975Z,100898.16
2023-04-02T13:06:37.004Z,100913.31
2023-04-02T13:09:50.595Z,100915.13
2023-04-02T13:12:57.524Z,100916.50
2023-04-02T13:16:29.537Z,100922.28
2023-04-02T13:19:33.601Z,100921.66
2023-04-02T13:22:35.910Z,100932.63
2023-04-02T13:25:38.481Z,100940.88
2023-04-02T13:28:41.177Z,100939.78
2023-04-02T13:31:43.753Z,100946.59
2023-04-02T13:34:46.665Z,100959.34
2023-04-02T13:37:49.554Z,100961.47
2023-04-02T13:40:51.895Z,100936.41
2023-04-02T13:43:55.661Z,100960.72
2023-04-02T13:46:59.077Z,100958.22
2023-04-02T13:50:01.576Z,100977.13
2023-04-02T13:53:10.454Z,100971.25
2023-04-02T13:56:13.102Z,100971.63
2023-04-02T13:59:16.257Z,100961.44
2023-04-02T14:02:21.728Z,100982.50
2023-04-02T14:05:42.200Z,100985.97
2023-04-02T14:09:11.586Z,100987.03
2023-04-02T14:12:26.399Z,100987.84
2023-04-02T14:16:07.173Z,100989.97
2023-04-02T14:19:24.879Z,100980.47
2023-04-02T14:22:57.622Z,101005.50
2023-04-02T14:26:39.828Z,101006.31
2023-04-02T14:29:48.762Z,101010.19
2023-04-02T14:32:59.500Z,101009.28
2023-04-02T14:36:24.127Z,101010.53
2023-04-02T14:39:43.513Z,101019.94
2023-04-02T14:43:15.974Z,101016.16
2023-04-02T14:46:18.433Z,101038.06
2023-04-02T14:49:30.521Z,101033.94
2023-04-02T14:52:34.607Z,101040.72
2023-04-02T14:55:49.172Z,101055.94
2023-04-02T14:59:03.618Z,101053.28
2023-04-02T15:02:28.706Z,101047.75
2023-04-02T15:05:49.561Z,101047.47
2023-04-02T15:09:08.982Z,101043.84
2023-04-02T15:12:23.461Z,101062.09
2023-04-02T15:15:41.379Z,101070.03
2023-04-02T15:18:43.809Z,101064.34
2023-04-02T15:22:09.633Z,101065.28
2023-04-02T15:25:38.388Z,101074.63
2023-04-02T15:28:48.032Z,101066.66
2023-04-02T15:31:52.429Z,101053.63
2023-04-02T15:35:22.174Z,101086.41
2023-04-02T15:38:43.010Z,101088.16
2023-04-02T15:42:19.460Z,101087.03
2023-04-02T15:45:33.935Z,101098.84
2023-04-02T15:48:48.473Z,101109.59
2023-04-02T15:52:21.312Z,101113.03
2023-04-02T15:55:23.847Z,101118.25
2023-04-02T15:58:55.076Z,101131.88
2023-04-02T16:02:33.708Z,101128.03
2023-04-02T16:06:01.060Z,101143.13
2023-04-02T16:09:21.970Z,101144.88
2023-04-02T16:12:26.445Z,101147.09
2023-04-02T16:15:38.111Z,101148.16
2023-04-02T16:18:48.205Z,101164.69
2023-04-02T16:22:10.975Z,101179.47
2023-04-02T16:25:22.960Z,101179.72
2023-04-02T16:28:28.538Z,101191.16
2023-04-02T16:32:04.693Z,101196.75
2023-04-02T16:39:20.574Z,101205.28
2023-04-02T16:42:37.032Z,101209.03
2023-04-02T16:45:48.786Z,101215.25
2023-04-02T16:49:28.628Z,101218.38
2023-04-02T16:52:39.256Z,101229.78
2023-04-02T16:55:44.512Z,101215.44
2023-04-02T16:59:05.104Z,101215.25
2023-04-02T17:02:32.832Z,101229.50
2023-04-02T17:06:09.408Z,101217.94
2023-04-02T17:09:11.657Z,101238.78
2023-04-02T17:12:23.740Z,101240.41
2023-04-02T17:15:42.071Z,101246.19
2023-04-02T17:18:48.528Z,101258.41
2023-04-02T17:21:54.018Z,101262.69
2023-04-02T17:25:02.640Z,101237.94
2023-04-02T17:28:10.358Z,101277.97
2023-04-02T17:31:26.001Z,101273.63
2023-04-02T17:34:28.434Z,101281.44
2023-04-02T17:37:43.250Z,101292.34
2023-04-02T17:41:01.452Z,101296.28
2023-04-02T17:44:42.491Z,101301.94
2023-04-02T17:48:09.722Z,101304.78
2023-04-02T17:51:30.086Z,101308.31
2023-04-02T17:55:10.097Z,101311.56
2023-04-02T17:58:15.652Z,101320.09
2023-04-02T18:01:24.110Z,101317.69
2023-04-02T18:04:54.647Z,101325.97
2023-04-02T18:08:19.232Z,101355.28
2023-04-02T18:11:21.958Z,101336.31
2023-04-02T18:14:30.223Z,101343.31
2023-04-02T18:17:44.679Z,101337.28
2023-04-02T18:20:58.825Z,101358.13
2023-04-02T18:24:03.823Z,101352.91
2023-04-02T18:27:08.849Z,101354.34
2023-04-02T18:30:19.958Z,101358.69
2023-04-02T18:33:29.293Z,101364.91
2023-04-02T18:36:31.609Z,101368.72
2023-04-02T18:39:37.715Z,101365.53
2023-04-02T18:43:03.410Z,101374.25
2023-04-02T18:46:18.848Z,101388.97
2023-04-02T18:49:24.846Z,101392.13
2023-04-02T18:52:27.107Z,101383.31
2023-04-02T18:55:29.640Z,101395.50
2023-04-02T18:58:34.929Z,101404.66
2023-04-02T19:01:38.617Z,101412.19
2023-04-02T19:04:40.995Z,101408.94
2023-04-02T19:07:43.714Z,101416.19
2023-04-02T19:10:46.909Z,101426.66
2023-04-02T19:13:51.540Z,101424.81
2023-04-02T19:17:02.948Z,101429.91
2023-04-02T19:20:11.470Z,101432.31
2023-04-02T19:23:13.971Z,101435.00
2023-04-02T19:26:17.276Z,101436.13
2023-04-02T19:29:22.551Z,101444.44
2023-04-02T19:32:27.882Z,101434.78
2023-04-02T19:35:33.006Z,101442.13
2023-04-02T19:38:47.332Z,101446.47
2023-04-02T19:41:58.543Z,101446.59
2023-04-02T19:45:00.751Z,101449.63
2023-04-02T19:48:14.815Z,101452.25
2023-04-02T19:51:16.983Z,101463.97
2023-04-02T19:54:19.414Z,101458.91
2023-04-02T19:57:21.731Z,101474.06
2023-04-02T20:00:24.080Z,101469.09
2023-04-02T20:03:26.398Z,101466.00
2023-04-02T20:06:30.128Z,101469.72
2023-04-02T20:09:32.327Z,101475.09
2023-04-02T20:12:34.690Z,101472.31
2023-04-02T20:15:37.047Z,101491.56
2023-04-02T20:18:39.656Z,101487.44
2023-04-02T20:21:42.178Z,101487.16
2023-04-02T20:24:44.400Z,101495.50
2023-04-02T20:27:46.777Z,101502.13
2023-04-02T20:30:50.462Z,101497.97
2023-04-02T20:33:59.442Z,101503.56
2023-04-02T20:37:01.922Z,101500.81
2023-04-02T20:40:04.906Z,101512.88
2023-04-02T20:43:07.134Z,101509.53
2023-04-02T20:46:11.644Z,101514.59
2023-04-02T20:49:14.437Z,101520.44
2023-04-02T20:52:16.844Z,101517.44
2023-04-02T20:55:19.073Z,101525.34
2023-04-02T20:58:21.223Z,101536.59
2023-04-02T21:01:24.570Z,101537.63
2023-04-02T21:04:28.142Z,101540.41
2023-04-02T21:07:30.487Z,101542.94
2023-04-02T21:10:32.666Z,101543.16
2023-04-02T21:13:38.825Z,101542.72
2023-04-02T21:16:41.959Z,101540.22
2023-04-02T21:19:44.226Z,101549.34
2023-04-02T21:22:46.475Z,101544.38
2023-04-02T21:25:58.675Z,101541.59
2023-04-02T21:29:00.907Z,101548.31
2023-04-02T21:32:11.116Z,101554.16
2023-04-02T21:35:20.648Z,101547.50
2023-04-02T21:38:22.814Z,101547.88
2023-04-02T21:41:26.680Z,101550.66
2023-04-02T21:44:28.972Z,101558.34
2023-04-02T21:47:31.424Z,101565.59
2023-04-02T21:50:33.753Z,101565.66
2023-04-02T21:53:36.136Z,101568.69
2023-04-02T21:56:41.838Z,101564.72
2023-04-02T21:59:44.095Z,101576.09
2023-04-02T22:02:46.381Z,101578.66
2023-04-02T22:05:48.679Z,101581.47
2023-04-02T22:08:55.455Z,101580.22
2023-04-02T22:12:01.956Z,101574.72
2023-04-02T22:15:04.339Z,101590.47
2023-04-02T22:18:06.607Z,101597.34
2023-04-02T22:21:08.927Z,101600.16
2023-04-02T22:24:13.103Z,101593.31
2023-04-02T22:27:15.997Z,101591.09
2023-04-02T22:30:18.414Z,101597.34
2023-04-02T22:33:21.043Z,101601.78
2023-04-02T22:36:23.907Z,101607.97
2023-04-02T22:39:26.243Z,101609.09
2023-04-02T22:42:28.428Z,101614.38
2023-04-02T22:45:30.627Z,101614.69
2023-04-02T22:48:33.086Z,101612.22
2023-04-02T22:51:35.385Z,101619.56
2023-04-02T22:54:37.702Z,101623.25
2023-04-02T22:57:39.882Z,101624.28
2023-04-02T23:00:42.211Z,101621.72
2023-04-02T23:03:44.462Z,101619.63
2023-04-02T23:06:48.022Z,101619.84
2023-04-02T23:09:50.549Z,101623.50
2023-04-02T23:12:52.721Z,101627.34
2023-04-02T23:15:55.056Z,101628.00
2023-04-02T23:18:57.760Z,101624.03
2023-04-02T23:21:59.957Z,101630.97
2023-04-02T23:25:02.148Z,101633.34
2023-04-02T23:28:04.848Z,101636.50
2023-04-02T23:31:08.566Z,101632.66
2023-04-02T23:34:11.154Z,101633.34
2023-04-02T23:37:13.370Z,101637.25
2023-04-02T23:40:15.691Z,101646.63
2023-04-02T23:43:17.813Z,101648.97
2023-04-02T23:46:20.284Z,101645.75
2023-04-02T23:49:22.543Z,101653.94
2023-04-02T23:52:24.741Z,101650.66
2023-04-02T23:55:26.890Z,101650.47
2023-04-02T23:58:29.142Z,101648.81
